Pleasanton, CA

10:31 PM PDT on September 14, 2014 (GMT -0700)
Livermore Municipal | Change Station
CLOSE
Current Station
Airport
Location: Livermore,
Elevation: 397 ft
Nearby Weather Stations

Elev 397 ft 37.69 °N, 121.81 °W | Updated 38 minutes ago

Clear
Clear
74 °F
Feels Like 74 °F
N
8
Wind Variable Wind from WNW

Today
High -- | Low -- °F
--% Chance of Precip.
Yesterday
High -- | Low -- °F
Precip. -- in
6:48 AM 7:16 PM
Waning Gibbous, 59% visible
Pressure 29.79 in
Visibility 10.0 miles
Clouds Clear
Dew Point 42 °F
Humidity 32%
Rainfall 0.00 in
Snow Depth 0 in , 3 in , 0 in
UV 0 out of 12
Pollen 6.20 out of 12
Ozone Good
PM2.5 Good
Flu Activity Not available.
METAR KLVK 150453Z 30007KT 10SM CLR 23/06 A2980 RMK AO2 SLP088 T02330056

More Conditions Fewer Conditions

Pressure 29.79 in
Visibility 10.0 miles
Clouds Clear
Dew Point 42 °F
Humidity 32%
Rainfall 0.00 in
Snow Depth 0 in , 3 in , 0 in
UV 0 out of 12
Pollen 6.20 out of 12
Ozone Good
PM2.5 Good
Flu Activity Not available.
METAR KLVK 150453Z 30007KT 10SM CLR 23/06 A2980 RMK AO2 SLP088 T02330056

More Conditions Fewer Conditions

10-Day Weather Forecast

Almanac

Astronomy

Sep. 14, 2014 Rise Set
Actual Time 6:48 AM PDT 7:16 PM PDT
Civil Twilight 6:22 AM PDT 7:42 PM PDT
Nautical Twilight 5:51 AM PDT 8:13 PM PDT
Astronomical Twilight 5:19 AM PDT 8:45 PM PDT
Moon 11:20 PM PDT (9/14) 12:53 PM PDT (9/14)
Length of Visible Light 13h 20m
Length of Day
12h 28m
Tomorrow will be 2m 24s shorter.
Waning Gibbous, 59% of the Moon is Illuminated
Sep 15
Waning Gibbous
Sep 15
Last Quarter
Sep 24
New
Oct 1
First Quarter
Oct 8
Full

Yesterday's Extremes

State Highs State Lows

Community

WunderPhotos

Upload Photos

1,753,415 photos uploaded!

WunderBlogs® & News

By Dr. Jeff Masters
Director of Meteorology, Weather Underground
By Kari Strenfel
Meteorologist, Weather Underground
By Christopher C. Burt
Weather Historian, Weather Underground
September 15, 2014
September 15, 2014
September 15, 2014

Nearby

Air Quality

  Air Quality AQ Index Pollutant
Yesterday Good
OZONE
Yesterday Good
PM2.5
Current Good
OZONE
Current Good
PM2.5
Sunday Moderate
OZONE
Monday Good
OZONE
Tuesday Good
OZONE
Wednesday Good
OZONE
Thursday Good
OZONE
Friday Good
OZONE

Snow Depth

Station Depth Elevation
Echo Peak 0 in 7800 ft
CSS Lab 3 in 6900 ft
Tahoe City Cross 0 in 6750 ft
Summit Meadow 1 in 9122 ft
Spratt Creek 0 in 6200 ft

Earthquake Activity

City Distance Mag. Time & Date
Cobb, California 95 miles 2.8 11:07 AM PDT
2014-09-14
Ridgemark, California 74 miles 2.6 12:44 PM PDT
2014-09-12
, 79 miles 2.6 11:00 AM PDT
2014-09-11
Minimum magnitude displayed is 2.5.

Coastal Water Temperatures

Place Temperature
No Stations Reporting

Nearby Weather Stations